Time;durP1;ratioP1;P1;durP2;ratioP2;P2;SDS_P1;SDS_P2;PMS_P1;PMS_P2;Temp;Humidity;BMP_temperature;BMP_pressure;BME280_temperature;BME280_humidity;BME280_pressure;Samples;Min_cycle;Max_cycle;Signal;HPM_P1;HPM_P2
2023/06/20 00:00:31;;;;;;;14.40;10.60;;;17.50;99.90;;;;;;5053849;28;20045;-81
2023/06/20 00:02:56;;;;;;;12.13;10.05;;;17.40;99.90;;;;;;5053476;28;20098;-81
2023/06/20 00:05:22;;;;;;;17.77;10.77;;;17.30;99.90;;;;;;5053917;28;20131;-81
2023/06/20 00:07:48;;;;;;;13.82;10.00;;;17.30;99.90;;;;;;5036921;28;20110;-81
2023/06/20 00:10:14;;;;;;;15.25;9.90;;;17.30;99.90;;;;;;5037202;28;20076;-81
2023/06/20 00:12:40;;;;;;;13.73;10.40;;;17.20;99.90;;;;;;5037013;28;20082;-81
2023/06/20 00:15:07;;;;;;;15.90;11.27;;;17.20;99.90;;;;;;5070287;28;20043;-81
2023/06/20 00:17:32;;;;;;;15.48;10.98;;;17.20;99.90;;;;;;5053378;28;20464;-82
2023/06/20 00:19:58;;;;;;;14.48;11.30;;;17.20;99.90;;;;;;5037020;28;20044;-81
2023/06/20 00:22:24;;;;;;;19.27;10.60;;;17.10;99.90;;;;;;5037061;28;20032;-81
2023/06/20 00:24:49;;;;;;;16.10;10.80;;;17.10;99.90;;;;;;5053256;28;20511;-81
2023/06/20 00:27:15;;;;;;;17.23;11.15;;;17.10;99.90;;;;;;5036895;28;20044;-82
2023/06/20 00:29:41;;;;;;;17.67;12.05;;;17.10;99.90;;;;;;5053172;28;20044;-81
2023/06/20 00:32:07;;;;;;;14.60;11.43;;;17.10;99.90;;;;;;5053432;28;20044;-81
2023/06/20 00:34:32;;;;;;;17.80;11.57;;;17.10;99.90;;;;;;5053353;28;20036;-81
2023/06/20 00:36:58;;;;;;;15.27;11.57;;;17.10;99.90;;;;;;5069821;28;20417;-81
2023/06/20 00:39:24;;;;;;;14.48;12.18;;;17.10;99.90;;;;;;5036564;28;20036;-81
2023/06/20 00:41:49;;;;;;;20.13;12.65;;;17.10;99.90;;;;;;5053380;28;20489;-81
2023/06/20 00:44:15;;;;;;;16.70;12.63;;;17.00;99.90;;;;;;5036066;28;20532;-81
2023/06/20 00:46:41;;;;;;;15.85;11.45;;;17.00;99.90;;;;;;5036506;28;20124;-81
2023/06/20 00:49:09;;;;;;;16.15;12.15;;;17.00;99.90;;;;;;5053258;28;20157;-81
2023/06/20 00:51:37;;;;;;;17.55;12.63;;;17.00;99.90;;;;;;5036761;28;20133;-81
2023/06/20 00:54:03;;;;;;;15.20;11.18;;;16.90;99.90;;;;;;5053294;28;20103;-81
2023/06/20 00:56:29;;;;;;;15.52;11.38;;;16.90;99.90;;;;;;5036207;28;20418;-80
2023/06/20 00:58:55;;;;;;;15.15;12.00;;;16.90;99.90;;;;;;5052960;28;20087;-81
2023/06/20 01:01:21;;;;;;;17.02;12.45;;;16.90;99.90;;;;;;5052741;28;20491;-81
2023/06/20 01:03:49;;;;;;;18.48;12.48;;;16.90;99.90;;;;;;5052376;28;20057;-80
2023/06/20 01:06:27;;;;;;;17.75;12.70;;;16.90;99.90;;;;;;5069100;28;20059;-80
2023/06/20 01:09:08;;;;;;;15.07;11.02;;;16.80;99.90;;;;;;5052372;28;20037;-80
2023/06/20 01:11:52;;;;;;;19.55;13.48;;;16.80;99.90;;;;;;5052263;28;20078;-80
2023/06/20 01:14:39;;;;;;;15.93;12.50;;;16.80;99.90;;;;;;5069081;28;20043;-80
2023/06/20 01:17:13;;;;;;;21.33;12.13;;;16.80;99.90;;;;;;5069729;28;20193;-80
2023/06/20 01:20:12;;;;;;;17.20;13.50;;;16.80;99.90;;;;;;5069230;28;20052;-80
2023/06/20 01:23:07;;;;;;;18.20;12.98;;;16.80;99.90;;;;;;5052587;28;20448;-80
2023/06/20 01:26:10;;;;;;;15.40;12.73;;;16.80;99.90;;;;;;5052589;28;20079;-80
2023/06/20 01:28:44;;;;;;;18.92;13.13;;;16.80;99.90;;;;;;5047633;28;20135;-80
2023/06/20 01:31:29;;;;;;;18.50;13.50;;;16.80;99.90;;;;;;5068946;28;20043;-80
2023/06/20 01:34:13;;;;;;;20.85;14.00;;;16.80;99.90;;;;;;5068924;28;20055;-80
2023/06/20 01:36:42;;;;;;;18.20;13.32;;;16.80;99.90;;;;;;5069047;28;20049;-80
2023/06/20 01:39:31;;;;;;;17.25;13.18;;;16.80;99.90;;;;;;5052322;28;20036;-80
2023/06/20 01:42:02;;;;;;;18.27;13.23;;;16.80;99.90;;;;;;5068697;28;20040;-81
2023/06/20 01:44:28;;;;;;;17.33;13.63;;;16.80;99.90;;;;;;5068901;28;20040;-80
2023/06/20 01:46:56;;;;;;;16.02;13.68;;;16.70;99.90;;;;;;5068915;28;20048;-80
2023/06/20 01:49:24;;;;;;;19.25;13.68;;;16.70;99.90;;;;;;5068641;28;20041;-80
2023/06/20 01:51:55;;;;;;;23.63;14.73;;;16.70;99.90;;;;;;5037896;28;20098;-81
2023/06/20 01:54:24;;;;;;;19.02;14.10;;;16.70;99.90;;;;;;5072689;28;20072;-80
2023/06/20 01:56:51;;;;;;;19.50;14.80;;;16.60;99.90;;;;;;5072926;28;20044;-80
2023/06/20 01:59:18;;;;;;;21.52;15.40;;;16.70;99.90;;;;;;5056499;28;20047;-80
2023/06/20 02:01:47;;;;;;;21.08;14.95;;;16.60;99.90;;;;;;5056230;28;20052;-81
2023/06/20 02:04:16;;;;;;;24.80;14.63;;;16.60;99.90;;;;;;5072520;28;20115;-80
2023/06/20 02:06:43;;;;;;;21.08;15.30;;;16.60;99.90;;;;;;5056134;28;20501;-80
2023/06/20 02:09:10;;;;;;;19.08;15.30;;;16.70;99.90;;;;;;5064100;28;20666;-80
2023/06/20 02:11:36;;;;;;;20.42;16.00;;;16.70;99.90;;;;;;5055391;28;20123;-80
2023/06/20 02:14:03;;;;;;;21.60;15.30;;;16.70;99.90;;;;;;5055886;28;20036;-80
2023/06/20 02:16:30;;;;;;;23.38;16.67;;;16.70;99.90;;;;;;5072377;28;20051;-80
2023/06/20 02:18:56;;;;;;;26.40;16.10;;;16.70;99.90;;;;;;5056157;28;20047;-80
2023/06/20 02:21:26;;;;;;;31.23;17.25;;;16.80;99.90;;;;;;5055917;28;20117;-82
2023/06/20 02:23:53;;;;;;;25.17;17.33;;;16.80;99.90;;;;;;5072625;28;20391;-81
2023/06/20 02:26:25;;;;;;;23.77;17.20;;;16.80;99.90;;;;;;5057712;28;20047;-81
2023/06/20 02:28:57;;;;;;;22.70;16.13;;;16.80;99.90;;;;;;5056028;28;20079;-81
2023/06/20 02:31:24;;;;;;;23.75;16.35;;;16.80;99.90;;;;;;5072296;28;20123;-81
2023/06/20 02:33:53;;;;;;;21.90;16.15;;;16.80;99.90;;;;;;5055847;28;20381;-81
2023/06/20 02:36:25;;;;;;;23.83;16.38;;;16.80;99.90;;;;;;5072166;28;20051;-81
2023/06/20 02:38:52;;;;;;;21.20;15.73;;;16.80;99.90;;;;;;5055711;28;20071;-81
2023/06/20 02:41:19;;;;;;;22.98;15.13;;;16.90;99.90;;;;;;5071869;28;20102;-81
2023/06/20 02:43:45;;;;;;;20.40;15.18;;;16.80;99.90;;;;;;5055291;28;20162;-81
2023/06/20 02:46:30;;;;;;;21.70;16.20;;;16.90;99.90;;;;;;5038875;28;20479;-81
2023/06/20 02:49:16;;;;;;;22.23;15.52;;;16.90;99.90;;;;;;5072116;28;20036;-81
2023/06/20 02:52:05;;;;;;;24.17;15.85;;;16.90;99.90;;;;;;5071882;28;20402;-81
2023/06/20 02:55:06;;;;;;;23.02;17.30;;;16.90;99.90;;;;;;5055370;28;20085;-81
2023/06/20 02:57:33;;;;;;;19.02;15.68;;;16.90;99.90;;;;;;5043699;28;20052;-81
2023/06/20 03:00:08;;;;;;;21.98;15.68;;;16.90;99.90;;;;;;5038456;28;20042;-81
2023/06/20 03:02:36;;;;;;;20.95;15.70;;;16.90;99.90;;;;;;5071743;28;20048;-81
2023/06/20 03:05:07;;;;;;;22.17;15.73;;;16.90;99.90;;;;;;5054948;28;20449;-81
2023/06/20 03:07:35;;;;;;;23.50;16.25;;;16.90;99.90;;;;;;5071679;28;20036;-81
2023/06/20 03:10:03;;;;;;;22.15;16.00;;;16.90;99.90;;;;;;5078905;28;20060;-81
2023/06/20 03:12:30;;;;;;;20.17;15.63;;;16.90;99.90;;;;;;5060268;28;20044;-81
2023/06/20 03:14:56;;;;;;;21.38;15.45;;;16.90;99.90;;;;;;5054617;28;20041;-81
2023/06/20 03:17:21;;;;;;;20.60;15.80;;;16.90;99.90;;;;;;5037931;28;20039;-81
2023/06/20 03:19:47;;;;;;;21.95;16.35;;;16.90;99.90;;;;;;5054616;28;20544;-81
2023/06/20 03:22:13;;;;;;;24.70;15.10;;;16.90;99.90;;;;;;5054254;28;20044;-81
2023/06/20 03:24:39;;;;;;;18.42;14.73;;;16.90;99.90;;;;;;5071021;28;20080;-81
2023/06/20 03:27:04;;;;;;;23.05;15.27;;;16.90;99.90;;;;;;5054459;28;20480;-81
2023/06/20 03:29:31;;;;;;;19.95;14.63;;;16.90;99.90;;;;;;5054386;28;20076;-81
2023/06/20 03:31:56;;;;;;;19.42;15.35;;;16.90;99.90;;;;;;5054320;28;20064;-81
2023/06/20 03:34:22;;;;;;;22.20;15.13;;;16.90;99.90;;;;;;5037531;28;20074;-81
2023/06/20 03:36:48;;;;;;;23.60;14.77;;;16.90;99.90;;;;;;5037223;28;20087;-81
2023/06/20 03:39:13;;;;;;;19.92;14.55;;;16.90;99.90;;;;;;5037602;28;20071;-82
2023/06/20 03:41:39;;;;;;;21.80;15.32;;;16.80;99.90;;;;;;5053548;28;20037;-81
2023/06/20 03:44:05;;;;;;;20.25;15.57;;;16.80;99.90;;;;;;5037420;28;20079;-81
2023/06/20 03:46:30;;;;;;;17.90;14.23;;;16.80;99.90;;;;;;5070364;28;20493;-81
2023/06/20 03:48:56;;;;;;;25.00;15.82;;;16.80;99.90;;;;;;5036986;28;20135;-81
2023/06/20 03:51:22;;;;;;;19.95;14.48;;;16.80;99.90;;;;;;5053683;28;20043;-81
2023/06/20 03:53:47;;;;;;;16.92;13.90;;;16.80;99.90;;;;;;5054004;28;20074;-81
2023/06/20 03:56:13;;;;;;;20.55;15.20;;;16.70;99.90;;;;;;5053981;28;20191;-81
2023/06/20 03:58:39;;;;;;;18.95;14.45;;;16.80;99.90;;;;;;5037264;28;20045;-81
2023/06/20 04:01:06;;;;;;;19.58;14.52;;;16.80;99.90;;;;;;5053824;28;20123;-81
2023/06/20 04:03:32;;;;;;;19.85;15.13;;;16.80;99.90;;;;;;5053671;28;20037;-81
2023/06/20 04:06:01;;;;;;;22.60;14.48;;;16.80;99.90;;;;;;5053664;28;20049;-81
2023/06/20 04:08:28;;;;;;;19.02;14.40;;;16.80;99.90;;;;;;5053975;28;20533;-81
2023/06/20 04:10:55;;;;;;;17.35;14.30;;;16.80;99.90;;;;;;5054116;28;20105;-81
2023/06/20 04:13:20;;;;;;;20.65;15.20;;;16.80;99.90;;;;;;5069299;28;20043;-81
2023/06/20 04:15:46;;;;;;;17.00;13.63;;;16.80;99.90;;;;;;5070018;28;20045;-81
2023/06/20 04:18:12;;;;;;;21.33;15.13;;;16.80;99.90;;;;;;5053128;28;20082;-81
2023/06/20 04:20:37;;;;;;;17.95;14.40;;;16.90;99.90;;;;;;5053624;28;20040;-82
2023/06/20 04:23:03;;;;;;;18.80;14.52;;;16.80;99.90;;;;;;5036769;28;20047;-81
2023/06/20 04:25:29;;;;;;;22.23;15.35;;;16.90;99.90;;;;;;5053521;28;20497;-81
2023/06/20 04:27:55;;;;;;;19.33;13.77;;;16.90;99.90;;;;;;5053214;28;20036;-81
2023/06/20 04:30:22;;;;;;;18.15;14.10;;;17.00;99.90;;;;;;5070253;28;20044;-81
2023/06/20 04:32:47;;;;;;;20.15;14.27;;;17.00;99.90;;;;;;5069807;28;20549;-81
2023/06/20 04:35:14;;;;;;;21.58;13.40;;;17.00;99.90;;;;;;5053438;28;20047;-81
2023/06/20 04:37:40;;;;;;;19.27;13.80;;;17.00;99.90;;;;;;5069957;28;20036;-81
2023/06/20 04:40:08;;;;;;;17.30;13.20;;;17.10;99.90;;;;;;5053303;28;20512;-82
2023/06/20 04:42:34;;;;;;;20.15;14.10;;;17.10;99.90;;;;;;5036269;28;20072;-81
2023/06/20 04:44:59;;;;;;;18.10;13.68;;;17.20;99.90;;;;;;5036427;28;20044;-81
2023/06/20 04:47:25;;;;;;;20.67;13.30;;;17.20;99.90;;;;;;5069657;28;20072;-82
2023/06/20 04:49:51;;;;;;;19.17;13.00;;;17.30;99.90;;;;;;5036490;28;20090;-81
2023/06/20 04:52:16;;;;;;;17.17;13.35;;;17.30;99.90;;;;;;5052934;28;20040;-82
2023/06/20 04:54:42;;;;;;;19.85;14.45;;;17.40;99.90;;;;;;5052962;28;20052;-81
2023/06/20 04:57:08;;;;;;;18.85;13.85;;;17.40;99.90;;;;;;5036256;28;20041;-81
2023/06/20 04:59:38;;;;;;;17.92;13.43;;;17.50;99.90;;;;;;5052712;28;20041;-82
2023/06/20 05:02:05;;;;;;;19.45;13.80;;;17.50;99.90;;;;;;5036858;28;20047;-82
2023/06/20 05:04:31;;;;;;;16.95;13.35;;;17.60;99.90;;;;;;5069253;28;20093;-82
2023/06/20 05:06:57;;;;;;;18.38;13.77;;;17.70;99.90;;;;;;5069529;28;20405;-82
2023/06/20 05:09:23;;;;;;;20.58;13.27;;;17.70;99.90;;;;;;5052586;28;20043;-82
2023/06/20 05:11:48;;;;;;;22.55;13.80;;;17.80;99.90;;;;;;5052676;28;20042;-82
2023/06/20 05:14:14;;;;;;;17.05;12.98;;;17.80;99.90;;;;;;5036044;28;20101;-82
2023/06/20 05:16:40;;;;;;;20.30;13.73;;;17.90;99.90;;;;;;5052516;28;20540;-82
2023/06/20 05:19:05;;;;;;;20.77;13.30;;;18.00;99.90;;;;;;5069065;28;20094;-82
2023/06/20 05:21:31;;;;;;;17.48;13.10;;;18.00;99.90;;;;;;5052596;28;20040;-82
2023/06/20 05:23:57;;;;;;;18.67;13.65;;;18.10;99.90;;;;;;5035877;28;20036;-82
2023/06/20 05:26:22;;;;;;;16.30;13.40;;;18.20;99.90;;;;;;5036198;28;20113;-82
2023/06/20 05:28:48;;;;;;;17.85;13.00;;;18.30;99.90;;;;;;5035924;28;20050;-82
2023/06/20 05:31:14;;;;;;;16.50;13.35;;;18.30;99.90;;;;;;5052761;28;20036;-82
2023/06/20 05:33:39;;;;;;;14.20;12.55;;;18.40;99.90;;;;;;5035852;28;20097;-82
2023/06/20 05:36:05;;;;;;;17.25;13.05;;;18.50;99.90;;;;;;5036138;28;20095;-82
2023/06/20 05:38:31;;;;;;;18.05;12.65;;;18.50;99.90;;;;;;5052519;28;20102;-83
2023/06/20 05:41:00;;;;;;;21.25;13.80;;;18.60;99.90;;;;;;5052747;28;20050;-82
2023/06/20 05:43:25;;;;;;;17.30;13.07;;;18.70;99.90;;;;;;5051907;28;20045;-82
2023/06/20 05:45:51;;;;;;;17.63;13.35;;;18.70;99.90;;;;;;5052439;28;20085;-82
2023/06/20 05:48:17;;;;;;;16.75;13.20;;;18.80;99.90;;;;;;5069042;28;20051;-82
2023/06/20 05:50:42;;;;;;;16.08;13.30;;;18.80;99.90;;;;;;5036151;28;20043;-82
2023/06/20 05:53:08;;;;;;;15.50;12.60;;;18.80;99.90;;;;;;5035649;28;20546;-82
2023/06/20 05:55:34;;;;;;;16.33;12.95;;;18.90;99.90;;;;;;5035725;28;20095;-81
2023/06/20 05:57:59;;;;;;;16.42;13.40;;;18.90;99.90;;;;;;5069574;28;20497;-82
2023/06/20 06:00:25;;;;;;;17.08;13.63;;;19.00;99.90;;;;;;5035663;28;20123;-82
2023/06/20 06:02:51;;;;;;;18.73;13.20;;;19.10;99.90;;;;;;5035898;28;20094;-82
2023/06/20 06:05:17;;;;;;;16.90;12.77;;;19.10;99.90;;;;;;5035481;28;20106;-82
2023/06/20 06:07:42;;;;;;;15.02;12.57;;;19.20;99.90;;;;;;5068868;28;20497;-80
2023/06/20 06:10:09;;;;;;;18.45;13.52;;;19.30;99.90;;;;;;5051945;28;20086;-81
2023/06/20 06:12:36;;;;;;;14.50;11.75;;;19.30;99.90;;;;;;5051735;28;20040;-82
2023/06/20 06:15:05;;;;;;;17.23;12.88;;;19.30;99.90;;;;;;5068697;28;20075;-82
2023/06/20 06:17:32;;;;;;;15.65;12.82;;;19.40;99.90;;;;;;5052672;28;20040;-81
2023/06/20 06:19:58;;;;;;;16.02;13.02;;;19.40;99.90;;;;;;5068632;28;20047;-81
2023/06/20 06:22:24;;;;;;;17.10;13.23;;;19.50;99.90;;;;;;5051907;28;20155;-82
2023/06/20 06:24:50;;;;;;;15.95;12.95;;;19.50;99.90;;;;;;5051730;28;20048;-81
2023/06/20 06:27:17;;;;;;;16.73;12.95;;;19.50;99.90;;;;;;5051837;28;20040;-81
2023/06/20 06:29:43;;;;;;;17.10;13.98;;;19.60;99.90;;;;;;5052201;28;20142;-82
2023/06/20 06:32:10;;;;;;;20.00;14.52;;;19.60;99.90;;;;;;5051871;28;20041;-83
2023/06/20 06:34:36;;;;;;;24.00;13.70;;;19.70;99.90;;;;;;5052002;28;20084;-81
2023/06/20 06:37:03;;;;;;;16.58;13.45;;;19.70;99.90;;;;;;5052775;28;20048;-81
2023/06/20 06:39:29;;;;;;;22.20;14.57;;;19.80;99.90;;;;;;5055366;28;20049;-81
2023/06/20 06:41:55;;;;;;;19.23;13.50;;;19.70;99.90;;;;;;5072185;28;20048;-81
2023/06/20 06:44:21;;;;;;;20.27;14.05;;;19.80;99.90;;;;;;5055098;28;20398;-82
2023/06/20 06:46:46;;;;;;;16.73;13.73;;;19.80;99.90;;;;;;5055866;28;20079;-81
2023/06/20 06:49:12;;;;;;;20.63;14.30;;;19.90;99.90;;;;;;5071978;28;20037;-81
2023/06/20 06:51:41;;;;;;;17.10;14.18;;;19.90;99.90;;;;;;5055203;28;20131;-81
2023/06/20 06:54:07;;;;;;;17.17;13.57;;;19.90;99.90;;;;;;5071815;28;20041;-81
2023/06/20 06:56:32;;;;;;;21.80;14.48;;;20.00;99.90;;;;;;5071647;28;20098;-81
2023/06/20 06:59:00;;;;;;;17.70;14.00;;;19.90;99.90;;;;;;5055177;28;20086;-81
2023/06/20 07:01:28;;;;;;;21.35;15.05;;;19.90;99.90;;;;;;5071661;28;20129;-81
2023/06/20 07:03:54;;;;;;;18.60;15.55;;;20.00;99.90;;;;;;5055010;28;20048;-81
2023/06/20 07:06:20;;;;;;;17.92;14.75;;;19.90;99.90;;;;;;5055021;28;20509;-81
2023/06/20 07:08:47;;;;;;;24.33;15.90;;;20.00;99.90;;;;;;5038495;28;20106;-81
2023/06/20 07:11:12;;;;;;;19.73;14.77;;;20.00;99.90;;;;;;5054531;28;20248;-81
2023/06/20 07:13:38;;;;;;;20.50;15.48;;;20.00;99.90;;;;;;5071502;28;20048;-81
2023/06/20 07:16:04;;;;;;;20.10;15.35;;;20.00;99.90;;;;;;5055110;28;20086;-80
2023/06/20 07:18:30;;;;;;;17.05;14.43;;;20.10;99.90;;;;;;5054714;28;20414;-81
2023/06/20 07:20:59;;;;;;;20.55;14.02;;;20.10;99.90;;;;;;5071433;28;20044;-81
2023/06/20 07:23:25;;;;;;;19.70;15.55;;;20.20;99.90;;;;;;5071163;28;20061;-81
2023/06/20 07:25:51;;;;;;;17.95;14.50;;;20.20;99.90;;;;;;5054544;28;20036;-80
2023/06/20 07:28:17;;;;;;;19.25;15.35;;;20.20;99.90;;;;;;5071104;28;20040;-80
2023/06/20 07:30:43;;;;;;;16.83;15.02;;;20.20;99.90;;;;;;5054392;28;20127;-80
2023/06/20 07:33:08;;;;;;;19.10;15.32;;;20.30;99.90;;;;;;5054409;28;20051;-80
2023/06/20 07:35:34;;;;;;;17.35;13.63;;;20.30;99.90;;;;;;5054459;28;20044;-80
2023/06/20 07:37:59;;;;;;;19.88;15.70;;;20.30;99.90;;;;;;5071247;28;20101;-80
2023/06/20 07:40:25;;;;;;;17.85;14.95;;;20.30;99.90;;;;;;5037607;28;20529;-80
2023/06/20 07:42:51;;;;;;;15.68;13.98;;;20.40;99.90;;;;;;5053883;28;20079;-80
2023/06/20 07:45:16;;;;;;;20.15;15.05;;;20.40;99.90;;;;;;5037491;28;20128;-80
2023/06/20 07:47:42;;;;;;;18.67;15.50;;;20.50;99.90;;;;;;5037754;28;20048;-80
2023/06/20 07:50:08;;;;;;;18.40;14.73;;;20.50;99.90;;;;;;5069861;28;20478;-81
2023/06/20 07:52:34;;;;;;;19.98;14.52;;;20.60;99.90;;;;;;5054311;28;20041;-81
2023/06/20 07:55:04;;;;;;;20.92;14.93;;;20.70;99.90;;;;;;5070652;28;20070;-81
2023/06/20 07:57:29;;;;;;;18.83;12.73;;;20.70;99.90;;;;;;5054795;28;20102;-81
2023/06/20 07:59:55;;;;;;;18.10;13.02;;;21.00;99.90;;;;;;5054157;28;20040;-81
2023/06/20 08:02:22;;;;;;;16.27;13.65;;;21.10;99.90;;;;;;5037089;28;20148;-81
2023/06/20 08:04:48;;;;;;;16.92;13.27;;;21.20;99.90;;;;;;5053900;28;20133;-81
2023/06/20 08:07:14;;;;;;;15.80;13.07;;;21.30;99.90;;;;;;5053630;28;20046;-81
2023/06/20 08:09:40;;;;;;;15.60;13.77;;;21.40;99.90;;;;;;5037341;28;20035;-81
2023/06/20 08:12:06;;;;;;;19.83;14.23;;;21.50;99.90;;;;;;5036932;28;20037;-81
2023/06/20 08:14:32;;;;;;;23.40;14.05;;;21.60;99.90;;;;;;5053822;28;20047;-82
2023/06/20 08:16:57;;;;;;;25.60;12.95;;;21.70;99.90;;;;;;5053769;28;20037;-82
2023/06/20 08:19:23;;;;;;;25.85;12.82;;;21.70;99.90;;;;;;5053681;28;20485;-81
2023/06/20 08:21:48;;;;;;;28.50;13.75;;;21.80;99.90;;;;;;5037441;28;20501;-81
2023/06/20 08:24:14;;;;;;;16.15;12.60;;;21.80;99.90;;;;;;5053357;28;20419;-82
2023/06/20 08:26:40;;;;;;;24.30;12.95;;;21.90;99.90;;;;;;5053386;28;20028;-81
2023/06/20 08:29:08;;;;;;;22.63;13.07;;;22.10;99.90;;;;;;5036748;28;20040;-81
2023/06/20 08:31:36;;;;;;;19.38;12.23;;;22.20;99.90;;;;;;5053624;28;20106;-81
2023/06/20 08:34:03;;;;;;;23.90;12.63;;;22.30;99.90;;;;;;5053104;28;20051;-81
2023/06/20 08:36:29;;;;;;;35.22;11.65;;;22.30;99.90;;;;;;5053654;28;20395;-82
2023/06/20 08:38:55;;;;;;;19.08;12.40;;;22.30;99.90;;;;;;5053038;28;20518;-81
2023/06/20 08:41:27;;;;;;;14.75;11.45;;;22.40;99.90;;;;;;5053120;28;20094;-81
2023/06/20 08:43:52;;;;;;;;;;;22.50;99.90;;;;;;5036888;28;20154;-81
2023/06/20 08:46:19;;;;;;;16.08;11.38;;;22.50;99.90;;;;;;5036497;28;20046;-81
2023/06/20 08:48:46;;;;;;;16.13;11.65;;;22.60;99.90;;;;;;5069667;28;20044;-81
2023/06/20 08:51:15;;;;;;;17.70;11.68;;;22.60;99.90;;;;;;5056025;28;20043;-81
2023/06/20 08:53:45;;;;;;;30.23;12.77;;;22.70;99.90;;;;;;5052983;28;20131;-81
2023/06/20 08:56:11;;;;;;;20.40;12.68;;;22.80;99.90;;;;;;5036461;28;20040;-81
2023/06/20 08:58:37;;;;;;;14.55;12.40;;;22.90;99.90;;;;;;5036257;28;20079;-81
2023/06/20 09:01:06;;;;;;;12.55;10.48;;;22.90;99.90;;;;;;5052485;28;20132;-81
2023/06/20 09:03:32;;;;;;;13.73;11.68;;;23.00;99.90;;;;;;5052664;28;20040;-82
2023/06/20 09:05:58;;;;;;;18.23;11.77;;;23.20;99.90;;;;;;5036094;28;20078;-81
2023/06/20 09:08:32;;;;;;;13.23;11.48;;;23.40;99.90;;;;;;5036133;28;20040;-81
2023/06/20 09:11:09;;;;;;;21.75;11.10;;;23.70;99.90;;;;;;5069652;28;20063;-81
2023/06/20 09:13:35;;;;;;;13.90;9.95;;;24.20;99.90;;;;;;5052672;28;20098;-81
2023/06/20 09:16:05;;;;;;;14.15;9.98;;;24.50;99.90;;;;;;5035974;28;20040;-81
2023/06/20 09:18:33;;;;;;;14.95;10.82;;;24.70;99.90;;;;;;5052368;28;20079;-81
2023/06/20 09:20:59;;;;;;;11.93;10.18;;;24.90;99.90;;;;;;5069561;28;20045;-81
2023/06/20 09:23:29;;;;;;;10.98;9.70;;;25.10;99.90;;;;;;5052259;28;20383;-81
2023/06/20 09:25:56;;;;;;;15.98;9.60;;;25.20;99.90;;;;;;5052411;28;20125;-81
2023/06/20 09:28:22;;;;;;;12.07;9.80;;;25.30;99.90;;;;;;5052465;28;20037;-81
2023/06/20 09:30:48;;;;;;;12.35;9.18;;;25.50;99.90;;;;;;5052756;28;20131;-81
2023/06/20 09:33:15;;;;;;;12.30;9.07;;;25.50;99.90;;;;;;5052160;28;20485;-81
2023/06/20 09:35:41;;;;;;;12.75;9.13;;;25.80;99.90;;;;;;5052337;28;20048;-81
2023/06/20 09:38:08;;;;;;;14.30;8.93;;;25.80;99.90;;;;;;5052237;28;20539;-81
2023/06/20 09:40:45;;;;;;;15.23;8.95;;;26.00;99.90;;;;;;5069276;28;20127;-81
2023/06/20 09:43:10;;;;;;;10.43;8.20;;;26.10;99.90;;;;;;5052046;28;20048;-80
2023/06/20 09:45:36;;;;;;;12.18;7.97;;;26.20;99.90;;;;;;5052383;28;20611;-81
2023/06/20 09:48:03;;;;;;;11.15;7.07;;;26.50;99.90;;;;;;5052024;28;20036;-81
2023/06/20 09:50:31;;;;;;;16.80;8.25;;;26.60;99.90;;;;;;5069218;28;20397;-81
2023/06/20 09:53:02;;;;;;;9.95;7.00;;;26.70;99.90;;;;;;5052430;28;20080;-81
2023/06/20 09:55:34;;;;;;;7.72;7.03;;;26.90;99.90;;;;;;5069116;28;20036;-80
2023/06/20 09:58:01;;;;;;;;;;;27.00;99.90;;;;;;5069256;28;20473;-79
2023/06/20 10:00:29;;;;;;;14.07;6.95;;;27.00;99.00;;;;;;5052365;28;20370;-79
2023/06/20 10:03:00;;;;;;;14.00;6.93;;;27.10;99.90;;;;;;5052978;28;20040;-79
2023/06/20 10:05:28;;;;;;;16.10;6.50;;;27.20;99.50;;;;;;5052365;28;20121;-79
2023/06/20 10:08:00;;;;;;;15.00;7.05;;;27.30;99.60;;;;;;5052866;28;20073;-79
2023/06/20 10:10:26;;;;;;;19.30;7.55;;;27.40;99.30;;;;;;5054063;28;20079;-79
2023/06/20 10:12:54;;;;;;;8.20;7.40;;;27.40;99.00;;;;;;5056200;28;20080;-79
2023/06/20 10:15:21;;;;;;;9.75;7.50;;;27.40;98.50;;;;;;5074125;28;20125;-80
2023/06/20 10:17:47;;;;;;;20.05;7.40;;;27.50;98.40;;;;;;5073816;28;20048;-80
2023/06/20 10:20:33;;;;;;;8.52;6.88;;;27.60;98.50;;;;;;5057503;28;20081;-79
2023/06/20 10:23:05;;;;;;;12.15;6.97;;;27.80;98.10;;;;;;5056699;28;20063;-80
2023/06/20 10:25:32;;;;;;;15.82;7.35;;;27.60;97.00;;;;;;5073162;28;20199;-79
2023/06/20 10:28:01;;;;;;;9.23;7.35;;;27.60;97.50;;;;;;5073782;28;20390;-79
2023/06/20 10:30:53;;;;;;;8.50;7.70;;;27.50;97.60;;;;;;5056603;28;20044;-80
2023/06/20 10:33:23;;;;;;;10.60;7.10;;;27.30;97.30;;;;;;5072683;28;20048;-80
2023/06/20 10:36:00;;;;;;;12.95;7.22;;;27.30;97.70;;;;;;5072574;28;20048;-80
2023/06/20 10:38:27;;;;;;;9.90;6.97;;;27.20;97.40;;;;;;5072942;28;20374;-79
2023/06/20 10:41:08;;;;;;;9.07;6.20;;;27.10;97.50;;;;;;5040526;28;20044;-79
2023/06/20 10:43:48;;;;;;;11.10;6.32;;;27.00;97.20;;;;;;5072770;28;20112;-79
2023/06/20 10:46:15;;;;;;;18.38;7.03;;;27.00;97.10;;;;;;5073005;28;20044;-79
2023/06/20 10:48:40;;;;;;;7.38;6.32;;;27.00;97.40;;;;;;5056268;28;20044;-79
2023/06/20 10:51:07;;;;;;;11.65;6.95;;;27.00;97.60;;;;;;5072815;28;20047;-78
2023/06/20 10:53:32;;;;;;;8.02;7.03;;;27.00;97.30;;;;;;5039027;28;20037;-80
2023/06/20 10:55:58;;;;;;;10.05;7.13;;;27.00;97.20;;;;;;5039301;28;20045;-80
2023/06/20 10:58:24;;;;;;;8.82;7.30;;;26.90;97.50;;;;;;5056056;28;20485;-80
2023/06/20 11:00:53;;;;;;;11.40;7.35;;;27.00;97.40;;;;;;5040382;28;20101;-80
2023/06/20 11:03:22;;;;;;;8.68;7.00;;;27.10;97.60;;;;;;5074170;28;20093;-80
2023/06/20 11:05:50;;;;;;;9.70;6.70;;;27.20;97.70;;;;;;5056475;28;20142;-80
2023/06/20 11:08:26;;;;;;;17.10;7.47;;;27.40;97.50;;;;;;5040121;28;20436;-80
2023/06/20 11:10:53;;;;;;;7.32;6.63;;;27.60;97.30;;;;;;5073007;28;20390;-80
2023/06/20 11:13:19;;;;;;;8.85;7.35;;;27.80;97.70;;;;;;5039306;28;20051;-80
2023/06/20 11:15:45;;;;;;;8.07;7.07;;;28.00;97.30;;;;;;5056889;28;20422;-80
2023/06/20 11:18:11;;;;;;;8.38;7.05;;;28.10;97.10;;;;;;5057840;28;20052;-80
2023/06/20 11:20:41;;;;;;;10.13;7.85;;;28.20;97.00;;;;;;5039218;28;20127;-81
2023/06/20 11:23:15;;;;;;;11.10;7.70;;;28.10;96.80;;;;;;5071556;28;20507;-80
2023/06/20 11:25:42;;;;;;;11.25;7.72;;;28.00;96.80;;;;;;5071787;28;20048;-80
2023/06/20 11:28:15;;;;;;;9.95;7.60;;;28.10;96.80;;;;;;5054984;28;20490;-80
2023/06/20 11:30:44;;;;;;;11.18;7.60;;;28.20;96.40;;;;;;5072699;28;20606;-80
2023/06/20 11:33:14;;;;;;;8.15;6.90;;;28.20;96.30;;;;;;5055314;28;20033;-80
2023/06/20 11:35:54;;;;;;;7.75;7.05;;;28.20;96.40;;;;;;5055095;28;20693;-80
2023/06/20 11:38:22;;;;;;;9.55;6.30;;;28.20;96.30;;;;;;5055158;28;20044;-81
2023/06/20 11:41:03;;;;;;;6.28;5.68;;;28.20;96.00;;;;;;5055305;28;20058;-80
2023/06/20 11:43:41;;;;;;;7.45;5.57;;;28.40;96.10;;;;;;5071630;28;20047;-80
2023/06/20 11:46:07;;;;;;;10.65;5.65;;;28.70;94.90;;;;;;5055773;28;20137;-79
2023/06/20 11:48:33;;;;;;;6.45;5.88;;;28.80;95.20;;;;;;5055331;28;20097;-80
2023/06/20 11:51:06;;;;;;;8.15;5.80;;;29.00;94.70;;;;;;5071314;28;20040;-81
2023/06/20 11:53:36;;;;;;;7.88;6.03;;;29.20;93.70;;;;;;5072009;28;20104;-81
2023/06/20 11:56:11;;;;;;;7.30;6.60;;;29.30;94.00;;;;;;5054760;28;20040;-80
2023/06/20 11:58:42;;;;;;;6.32;5.72;;;29.40;93.80;;;;;;5055343;28;20044;-80
2023/06/20 12:01:20;;;;;;;12.93;5.63;;;29.60;93.90;;;;;;5054724;28;20551;-80
2023/06/20 12:04:00;;;;;;;7.47;5.45;;;29.70;93.40;;;;;;5054069;28;20041;-80
2023/06/20 12:06:33;;;;;;;5.90;5.30;;;29.80;93.20;;;;;;5054057;28;20502;-80
2023/06/20 12:09:04;;;;;;;6.22;5.60;;;29.70;92.30;;;;;;5037443;28;20075;-80
2023/06/20 12:11:30;;;;;;;5.70;4.83;;;29.70;92.50;;;;;;5070400;28;20042;-81
2023/06/20 12:13:56;;;;;;;7.10;5.53;;;29.60;92.30;;;;;;5054119;28;20037;-81
2023/06/20 12:16:23;;;;;;;7.50;5.60;;;29.80;92.40;;;;;;5070644;28;20072;-82
2023/06/20 12:18:51;;;;;;;6.30;5.70;;;29.70;92.00;;;;;;5070500;28;20132;-80
2023/06/20 12:21:17;;;;;;;7.63;6.75;;;29.40;91.90;;;;;;5053542;28;20040;-81
2023/06/20 12:23:43;;;;;;;5.80;5.20;;;29.30;92.20;;;;;;5053891;28;20028;-80
2023/06/20 12:26:09;;;;;;;6.80;5.55;;;29.10;92.20;;;;;;5053596;28;20423;-81
2023/06/20 12:28:38;;;;;;;7.20;5.30;;;29.00;92.20;;;;;;5037220;28;20036;-81
2023/06/20 12:31:07;;;;;;;7.25;5.50;;;28.80;92.30;;;;;;5037490;28;20485;-81
2023/06/20 12:33:33;;;;;;;8.85;5.90;;;28.70;92.40;;;;;;5070236;28;20054;-81
2023/06/20 12:35:59;;;;;;;8.57;5.95;;;28.60;92.50;;;;;;5069271;28;20381;-81